ADDS TAF Data INFO
IDs: Format: Raw Decoded Include METARs

Data at: 0524 UTC 16 Dec 2017

TAF for:KPDX (Portland Intl Arpt, OR, US) issued at 0312 UTC 16 Dec 2017
Text:KPDX 160312Z 1603/1624 21005KT P6SM VCSH SCT030 BKN050 OVC080
Forecast period:0300 to 1900 UTC 16 December 2017
Forecast type:FROM: standard forecast or significant change
Winds:from the SSW (210 degrees) at 6 MPH (5 knots; 2.6 m/s)
Visibility:6 or more sm (10+ km)
Ceiling:5000 feet AGL
Clouds: scattered clouds at 3000 feet AGL, broken clouds at 5000 feet AGL, overcast cloud deck at 8000 feet AGL
Weather:VCSH (showers in vicinity)
Text:FM161900 15003KT P6SM VCSH BKN025 BKN040
Forecast period:1900 UTC 16 December 2017 to 0000 UTC 17 December 2017
Forecast type:FROM: standard forecast or significant change
Winds:from the SSE (150 degrees) at 3 MPH (3 knots; 1.5 m/s)
Visibility:6 or more sm (10+ km)
Ceiling:2500 feet AGL
Clouds: broken clouds at 2500 feet AGL, broken clouds at 4000 feet AGL
Weather:VCSH (showers in vicinity)